Rechercher aéroport 
image banner adimage banner ad
image banner ad

EVSM - Lielvarde M Sola

Situé à Lielvarde, Latvia

ICAO - , IATA -

Données fournies par Airmate  

Information générale

Coordonnées: N56°39'59" E24°54'11"
Élévation : 142 feet MSL.
Variation magnétique : 7° East
Voir autres Aéroports à Ogre District

Données opérationnelles

Accessible au public
Heure actuelle UTC:
Heure actuelle locale:
Météo à : EVRA - Riga ( 64 km )
METAR: EVRA 040650Z 15013KT 9999 OVC013 01/M01 Q1013 R18/310195 NOSIG
TAF: TAF EVRA 040501Z 0406/0506 14015KT 9999 OVC015 TEMPO 0406/0414 14018G28KT OVC013 BECMG 0414/0416 OVC010
Voir NOTAMs / SUP AIP / TFR affectant cet aéroport [VIEW]
Fréquences de communication: [VIEW]

Pistes:

Coordonnées de l'aéroport

Adresse: Lielvarde Latvia

Vue satellite de EVSM